createdAt,value
2022-07-26T00:04:07.789Z,2.90
2022-07-26T00:10:10.242Z,3.40
2022-07-26T00:16:12.370Z,1.97
2022-07-26T00:22:33.094Z,2.20
2022-07-26T00:28:35.251Z,2.50
2022-07-26T00:34:38.411Z,3.07
2022-07-26T00:40:40.373Z,2.47
2022-07-26T00:46:44.049Z,2.70
2022-07-26T00:52:49.347Z,3.10
2022-07-26T00:58:51.376Z,2.40
2022-07-26T01:04:53.427Z,3.17
2022-07-26T01:10:55.833Z,3.17
2022-07-26T01:16:58.072Z,3.20
2022-07-26T01:23:00.488Z,3.03
2022-07-26T01:29:02.552Z,3.43
2022-07-26T01:35:05.546Z,3.30
2022-07-26T01:41:07.601Z,2.80
2022-07-26T01:47:09.617Z,3.10
2022-07-26T01:53:11.586Z,2.07
2022-07-26T01:59:13.575Z,2.10
2022-07-26T02:05:15.503Z,2.50
2022-07-26T02:11:17.428Z,2.03
2022-07-26T02:17:19.494Z,2.30
2022-07-26T02:23:23.189Z,2.40
2022-07-26T02:29:26.506Z,1.77
2022-07-26T02:35:28.657Z,1.73
2022-07-26T02:41:30.680Z,1.73
2022-07-26T02:47:33.091Z,1.83
2022-07-26T02:53:35.063Z,2.37
2022-07-26T02:59:37.059Z,2.67
2022-07-26T03:05:39.091Z,1.93
2022-07-26T03:11:41.067Z,2.10
2022-07-26T03:17:59.472Z,2.00
2022-07-26T03:24:01.426Z,1.90
2022-07-26T03:30:05.397Z,2.23
2022-07-26T03:36:11.278Z,1.70
2022-07-26T03:42:13.716Z,3.17
2022-07-26T03:48:15.688Z,1.83
2022-07-26T03:54:17.822Z,2.20
2022-07-26T04:00:19.897Z,1.70
2022-07-26T04:06:23.152Z,2.00
2022-07-26T04:12:25.250Z,1.83
2022-07-26T04:18:27.228Z,2.57
2022-07-26T04:24:29.212Z,2.47
2022-07-26T04:30:31.376Z,1.93
2022-07-26T04:36:33.382Z,1.50
2022-07-26T04:42:36.096Z,1.60
2022-07-26T04:48:38.754Z,2.00
2022-07-26T04:54:40.730Z,1.63
2022-07-26T05:01:08.365Z,1.77
2022-07-26T05:07:04.748Z,2.40
2022-07-26T05:13:07.676Z,1.90
2022-07-26T05:19:09.803Z,1.70
2022-07-26T05:25:11.849Z,2.47
2022-07-26T05:31:13.897Z,1.97
2022-07-26T05:37:16.494Z,2.77
2022-07-26T05:43:18.855Z,2.20
2022-07-26T05:49:20.861Z,2.60
2022-07-26T05:55:22.845Z,2.50
2022-07-26T06:01:25.031Z,2.40
2022-07-26T06:07:28.493Z,3.00
2022-07-26T06:13:30.516Z,3.70
2022-07-26T06:19:32.956Z,3.53
2022-07-26T06:25:35.193Z,3.70
2022-07-26T06:31:37.543Z,5.03
2022-07-26T06:37:41.675Z,4.80
2022-07-26T06:43:43.684Z,6.00
2022-07-26T06:49:45.707Z,4.87
2022-07-26T06:55:47.731Z,4.63
2022-07-26T07:01:58.036Z,5.60
2022-07-26T07:08:02.360Z,5.70
2022-07-26T07:14:04.700Z,5.23
2022-07-26T07:20:07.247Z,6.10
2022-07-26T07:26:09.447Z,6.40
2022-07-26T07:32:16.084Z,6.17
2022-07-26T07:38:22.535Z,6.00
2022-07-26T07:44:24.633Z,5.50
2022-07-26T07:50:27.319Z,6.80
2022-07-26T07:56:30.652Z,6.53
2022-07-26T08:02:32.618Z,7.23
2022-07-26T08:08:36.152Z,6.50
2022-07-26T08:14:38.222Z,5.50
2022-07-26T08:20:42.956Z,6.47
2022-07-26T08:26:45.557Z,6.00
2022-07-26T08:32:47.534Z,5.30
2022-07-26T08:38:49.675Z,5.50
2022-07-26T08:44:52.576Z,5.00
2022-07-26T08:50:58.331Z,4.50
2022-07-26T08:57:00.429Z,5.30
2022-07-26T09:03:03.702Z,4.30
2022-07-26T09:09:14.961Z,4.40
2022-07-26T09:15:27.607Z,4.47
2022-07-26T09:21:38.788Z,3.80
2022-07-26T09:27:40.880Z,3.40
2022-07-26T09:33:51.785Z,3.70
2022-07-26T09:40:00.382Z,3.47
2022-07-26T09:46:07.310Z,2.90
2022-07-26T09:52:21.374Z,3.23
2022-07-26T09:58:25.015Z,3.13
2022-07-26T10:04:27.270Z,2.80
2022-07-26T10:10:55.718Z,2.03
2022-07-26T10:16:57.763Z,2.07
2022-07-26T10:22:59.788Z,2.47
2022-07-26T10:29:26.451Z,2.30
2022-07-26T10:35:34.754Z,1.70
2022-07-26T10:41:48.255Z,1.67
2022-07-26T10:48:29.331Z,1.87
2022-07-26T10:54:31.960Z,2.23
2022-07-26T11:00:34.728Z,1.90
2022-07-26T11:06:36.761Z,1.63
2022-07-26T11:12:38.916Z,1.40
2022-07-26T11:18:40.918Z,1.67
2022-07-26T11:24:43.198Z,2.10
2022-07-26T11:30:59.536Z,1.60
2022-07-26T11:37:04.880Z,1.37
2022-07-26T11:43:07.041Z,1.60
2022-07-26T11:49:41.403Z,1.50
2022-07-26T11:55:47.651Z,1.60
2022-07-26T12:01:50.113Z,1.20
2022-07-26T12:08:04.299Z,1.30
2022-07-26T12:14:06.573Z,1.20
2022-07-26T12:20:18.024Z,1.10
2022-07-26T12:26:30.134Z,1.23
2022-07-26T12:32:38.407Z,1.20
2022-07-26T12:38:41.065Z,1.53
2022-07-26T12:44:43.032Z,1.20
2022-07-26T12:50:45.090Z,1.40
2022-07-26T12:56:47.113Z,1.83
2022-07-26T13:02:51.361Z,1.60
2022-07-26T13:08:53.826Z,1.40
2022-07-26T13:14:56.078Z,1.10
2022-07-26T13:20:58.200Z,1.13
2022-07-26T13:27:01.288Z,1.70
2022-07-26T13:33:04.644Z,1.13
2022-07-26T13:39:06.666Z,1.23
2022-07-26T13:45:09.586Z,1.30
2022-07-26T13:51:11.764Z,1.00
2022-07-26T13:57:13.728Z,1.47
2022-07-26T14:03:16.080Z,1.50
2022-07-26T14:09:20.144Z,1.17
2022-07-26T14:15:23.552Z,1.20
2022-07-26T14:21:29.666Z,1.40
2022-07-26T14:27:47.448Z,1.40
2022-07-26T14:33:49.496Z,2.50
2022-07-26T14:39:51.969Z,1.17
2022-07-26T14:45:54.019Z,1.23
2022-07-26T14:51:56.633Z,1.30
2022-07-26T14:57:58.713Z,1.33
2022-07-26T15:04:00.687Z,1.37
2022-07-26T15:10:04.062Z,1.10
2022-07-26T15:16:06.227Z,1.07
2022-07-26T15:22:09.527Z,1.27
2022-07-26T15:28:11.555Z,1.10
2022-07-26T15:34:13.868Z,1.43
2022-07-26T15:40:16.204Z,1.53
2022-07-26T15:46:19.657Z,1.20
2022-07-26T15:52:23.743Z,1.10
2022-07-26T15:58:26.949Z,1.10
2022-07-26T16:04:28.959Z,1.10
2022-07-26T16:10:30.997Z,1.30
2022-07-26T16:16:33.104Z,1.10
2022-07-26T16:22:35.570Z,1.23
2022-07-26T16:28:37.699Z,1.07
2022-07-26T16:34:39.920Z,1.10
2022-07-26T16:40:42.732Z,1.20
2022-07-26T16:46:44.937Z,1.33
2022-07-26T16:52:46.941Z,1.20
2022-07-26T16:58:48.991Z,1.20
2022-07-26T17:04:51.065Z,1.77
2022-07-26T17:10:53.064Z,1.10
2022-07-26T17:16:55.081Z,1.20
2022-07-26T17:22:57.092Z,1.40
2022-07-26T17:28:59.384Z,1.30
2022-07-26T17:35:01.541Z,1.50
2022-07-26T17:41:03.872Z,1.63
2022-07-26T17:47:27.586Z,1.23
2022-07-26T17:53:33.903Z,0.97
2022-07-26T17:59:36.744Z,1.03
2022-07-26T18:05:41.364Z,1.60
2022-07-26T18:11:43.641Z,1.10
2022-07-26T18:17:45.821Z,1.10
2022-07-26T18:24:14.406Z,1.00
2022-07-26T18:30:10.183Z,1.40
2022-07-26T18:36:12.265Z,1.00
2022-07-26T18:42:14.297Z,1.30
2022-07-26T18:48:16.255Z,1.60
2022-07-26T18:54:18.983Z,1.20
2022-07-26T19:00:22.699Z,1.10
2022-07-26T19:06:24.763Z,1.00
2022-07-26T19:12:27.977Z,1.40
2022-07-26T19:18:29.993Z,1.27
2022-07-26T19:24:32.023Z,1.53
2022-07-26T19:30:35.142Z,1.40
2022-07-26T19:36:37.393Z,1.30
2022-07-26T19:42:39.488Z,1.60
2022-07-26T19:48:41.542Z,1.73
2022-07-26T19:54:43.580Z,1.43
2022-07-26T20:00:45.573Z,1.43
2022-07-26T20:06:48.082Z,1.50
2022-07-26T20:12:50.093Z,1.80
2022-07-26T20:18:52.071Z,2.10
2022-07-26T20:24:56.190Z,1.70
2022-07-26T20:30:58.245Z,1.70
2022-07-26T20:37:00.292Z,1.73
2022-07-26T20:43:02.253Z,1.57
2022-07-26T20:49:04.296Z,1.70
2022-07-26T20:55:07.689Z,2.13
2022-07-26T21:01:10.476Z,1.70
2022-07-26T21:07:12.694Z,1.73
2022-07-26T21:13:14.947Z,1.50
2022-07-26T21:19:16.915Z,2.17
2022-07-26T21:25:19.020Z,1.57
2022-07-26T21:31:21.260Z,2.70
2022-07-26T21:37:23.258Z,1.90
2022-07-26T21:43:25.618Z,2.33
2022-07-26T21:49:27.698Z,1.90
2022-07-26T21:55:30.218Z,1.80
2022-07-26T22:01:32.277Z,2.10
2022-07-26T22:07:34.323Z,2.17
2022-07-26T22:13:36.852Z,1.83
2022-07-26T22:19:38.813Z,2.00
2022-07-26T22:25:41.451Z,1.60
2022-07-26T22:31:43.546Z,2.23
2022-07-26T22:37:45.640Z,1.87
2022-07-26T22:43:47.593Z,2.00
2022-07-26T22:49:49.715Z,1.93
2022-07-26T22:55:52.188Z,1.50
2022-07-26T23:01:57.247Z,1.70
2022-07-26T23:08:03.607Z,2.37
2022-07-26T23:14:06.068Z,2.07
2022-07-26T23:20:11.187Z,1.80
2022-07-26T23:26:13.200Z,1.80
2022-07-26T23:32:15.189Z,1.50
2022-07-26T23:38:17.159Z,1.73
2022-07-26T23:44:19.128Z,1.57
2022-07-26T23:50:21.113Z,1.73
2022-07-26T23:56:23.358Z,1.57
